createdAt,value
2022-12-27T00:01:29.697Z,2.51
2022-12-27T00:03:57.505Z,2.53
2022-12-27T00:06:26.370Z,2.50
2022-12-27T00:08:54.947Z,2.49
2022-12-27T00:11:24.540Z,2.50
2022-12-27T00:13:52.382Z,2.50
2022-12-27T00:16:21.240Z,2.50
2022-12-27T00:18:49.843Z,2.48
2022-12-27T00:21:18.585Z,2.42
2022-12-27T00:23:47.776Z,2.34
2022-12-27T00:26:20.148Z,2.27
2022-12-27T00:28:48.430Z,2.22
2022-12-27T00:31:16.834Z,2.20
2022-12-27T00:33:46.268Z,2.19
2022-12-27T00:36:16.017Z,2.16
2022-12-27T00:38:44.407Z,2.14
2022-12-27T00:41:12.237Z,2.15
2022-12-27T00:43:40.229Z,2.14
2022-12-27T00:46:08.306Z,2.14
2022-12-27T00:48:36.689Z,2.14
2022-12-27T00:51:10.582Z,2.14
2022-12-27T00:53:39.789Z,2.12
2022-12-27T00:56:27.082Z,2.13
2022-12-27T00:58:56.017Z,2.13
2022-12-27T01:01:25.098Z,2.11
2022-12-27T01:03:53.984Z,2.11
2022-12-27T01:06:26.511Z,2.11
2022-12-27T01:08:54.842Z,2.13
2022-12-27T01:11:22.818Z,2.15
2022-12-27T01:13:50.677Z,2.17
2022-12-27T01:16:22.765Z,2.17
2022-12-27T01:18:50.757Z,2.17
2022-12-27T01:21:20.017Z,2.16
2022-12-27T01:23:48.284Z,2.14
2022-12-27T01:26:17.934Z,2.14
2022-12-27T01:28:46.056Z,2.15
2022-12-27T01:31:17.869Z,2.18
2022-12-27T01:33:46.312Z,2.21
2022-12-27T01:36:19.265Z,2.24
2022-12-27T01:38:50.645Z,2.26
2022-12-27T01:41:42.903Z,2.29
2022-12-27T01:44:29.806Z,2.31
2022-12-27T01:46:57.883Z,2.31
2022-12-27T01:49:25.848Z,2.32
2022-12-27T01:51:54.014Z,2.33
2022-12-27T01:54:21.858Z,2.36
2022-12-27T01:56:50.382Z,2.38
2022-12-27T01:59:18.307Z,2.41
2022-12-27T02:01:47.923Z,2.43
2022-12-27T02:04:18.896Z,2.45
2022-12-27T02:06:47.880Z,2.47
2022-12-27T02:09:22.708Z,2.48
2022-12-27T02:11:55.506Z,2.50
2022-12-27T02:14:31.649Z,2.52
2022-12-27T02:17:01.329Z,2.53
2022-12-27T02:19:41.440Z,2.54
2022-12-27T02:22:15.256Z,2.53
2022-12-27T02:24:53.228Z,2.52
2022-12-27T02:27:39.935Z,2.53
2022-12-27T02:30:08.948Z,2.53
2022-12-27T02:32:41.303Z,2.53
2022-12-27T02:35:28.010Z,2.54
2022-12-27T02:38:00.179Z,2.57
2022-12-27T02:40:48.521Z,2.59
2022-12-27T02:43:35.441Z,2.61
2022-12-27T02:46:30.812Z,2.63
2022-12-27T02:49:17.971Z,2.63
2022-12-27T02:52:10.936Z,2.65
2022-12-27T02:54:57.540Z,2.65
2022-12-27T02:57:31.253Z,2.67
2022-12-27T03:00:24.099Z,2.70
2022-12-27T03:03:10.854Z,2.75
2022-12-27T03:05:38.833Z,2.80
2022-12-27T03:08:19.740Z,2.84
2022-12-27T03:11:12.800Z,2.89
2022-12-27T03:14:03.599Z,2.94
2022-12-27T03:16:31.472Z,3.03
2022-12-27T03:19:12.975Z,3.13
2022-12-27T03:22:04.991Z,3.22
2022-12-27T03:24:54.106Z,3.33
2022-12-27T03:27:33.388Z,3.44
2022-12-27T03:30:23.069Z,3.49
2022-12-27T03:33:13.753Z,3.54
2022-12-27T03:36:11.724Z,3.60
2022-12-27T03:38:47.137Z,3.70
2022-12-27T03:41:36.559Z,3.79
2022-12-27T03:44:24.231Z,3.86
2022-12-27T03:47:12.441Z,3.91
2022-12-27T03:49:52.799Z,3.96
2022-12-27T03:52:41.960Z,3.98
2022-12-27T03:55:10.541Z,3.97
2022-12-27T03:57:38.761Z,3.95
2022-12-27T04:00:07.503Z,3.93
2022-12-27T04:02:41.541Z,3.92
2022-12-27T04:05:09.573Z,3.88
2022-12-27T04:07:37.762Z,3.82
2022-12-27T04:10:24.677Z,3.76
2022-12-27T04:13:11.077Z,3.69
2022-12-27T04:15:57.443Z,3.65
2022-12-27T04:18:44.085Z,3.60
2022-12-27T04:21:30.487Z,3.57
2022-12-27T04:24:16.893Z,3.55
2022-12-27T04:27:03.299Z,3.52
2022-12-27T04:29:50.108Z,3.50
2022-12-27T04:32:36.612Z,3.49
2022-12-27T04:35:04.786Z,3.48
2022-12-27T04:37:32.759Z,3.47
2022-12-27T04:40:19.261Z,3.46
2022-12-27T04:43:05.968Z,3.45
2022-12-27T04:45:53.505Z,3.45
2022-12-27T04:48:39.997Z,3.43
2022-12-27T04:51:28.247Z,3.42
2022-12-27T04:54:14.950Z,3.40
2022-12-27T04:56:42.936Z,3.39
2022-12-27T04:59:29.436Z,3.39
2022-12-27T05:02:03.680Z,3.38
2022-12-27T05:04:33.456Z,3.38
2022-12-27T05:07:24.710Z,3.39
2022-12-27T05:10:11.449Z,3.39
2022-12-27T05:12:58.083Z,3.39
2022-12-27T05:15:26.059Z,3.39
2022-12-27T05:17:54.024Z,3.39
2022-12-27T05:20:22.004Z,3.38
2022-12-27T05:23:08.700Z,3.38
2022-12-27T05:25:40.662Z,3.38
2022-12-27T05:28:09.867Z,3.37
2022-12-27T05:30:39.262Z,3.38
2022-12-27T05:33:07.654Z,3.40
2022-12-27T05:35:36.328Z,3.42
2022-12-27T05:38:04.715Z,3.44
2022-12-27T05:40:32.880Z,3.47
2022-12-27T05:43:01.595Z,3.48
2022-12-27T05:45:30.170Z,3.50
2022-12-27T05:47:58.960Z,3.52
2022-12-27T05:50:27.629Z,3.54
2022-12-27T05:53:11.371Z,3.57
2022-12-27T05:55:39.335Z,3.60
2022-12-27T05:58:07.591Z,3.62
2022-12-27T06:00:35.703Z,3.64
2022-12-27T06:03:04.111Z,3.66
2022-12-27T06:05:32.243Z,3.64
2022-12-27T06:08:00.210Z,3.64
2022-12-27T06:10:28.182Z,3.65
2022-12-27T06:12:56.154Z,3.66
2022-12-27T06:15:24.125Z,3.68
2022-12-27T06:17:52.192Z,3.73
2022-12-27T06:20:20.156Z,3.78
2022-12-27T06:22:48.364Z,3.82
2022-12-27T06:25:16.504Z,3.85
2022-12-27T06:27:44.479Z,3.89
2022-12-27T06:30:12.752Z,3.94
2022-12-27T06:32:40.715Z,4.00
2022-12-27T06:35:08.704Z,4.06
2022-12-27T06:37:36.660Z,4.12
2022-12-27T06:40:04.942Z,4.17
2022-12-27T06:42:32.915Z,4.25
2022-12-27T06:45:00.990Z,4.32
2022-12-27T06:47:29.254Z,4.36
2022-12-27T06:49:57.239Z,4.43
2022-12-27T06:52:26.627Z,4.54
2022-12-27T06:54:54.496Z,4.65
2022-12-27T06:57:22.359Z,4.74
2022-12-27T06:59:54.023Z,4.80
2022-12-27T07:02:22.527Z,4.87
2022-12-27T07:04:50.780Z,4.91
2022-12-27T07:07:18.653Z,4.91
2022-12-27T07:09:46.715Z,4.92
2022-12-27T07:12:14.795Z,4.93
2022-12-27T07:14:42.657Z,4.92
2022-12-27T07:17:10.635Z,4.93
2022-12-27T07:19:38.693Z,4.91
2022-12-27T07:22:06.560Z,4.87
2022-12-27T07:24:34.411Z,4.82
2022-12-27T07:27:02.711Z,4.80
2022-12-27T07:29:30.884Z,4.79
2022-12-27T07:31:59.156Z,4.77
2022-12-27T07:34:27.652Z,4.75
2022-12-27T07:36:55.612Z,4.72
2022-12-27T07:39:23.470Z,4.69
2022-12-27T07:41:51.959Z,4.66
2022-12-27T07:44:19.923Z,4.64
2022-12-27T07:46:47.917Z,4.61
2022-12-27T07:49:18.013Z,4.59
2022-12-27T07:51:46.289Z,4.59
2022-12-27T07:54:14.177Z,4.60
2022-12-27T07:56:42.936Z,4.61
2022-12-27T07:59:14.001Z,4.64
2022-12-27T08:02:20.412Z,4.66
2022-12-27T08:04:48.371Z,4.69
2022-12-27T08:07:18.082Z,4.70
2022-12-27T08:09:47.349Z,4.71
2022-12-27T08:12:15.416Z,4.71
2022-12-27T08:14:43.401Z,4.73
2022-12-27T08:17:25.686Z,4.73
2022-12-27T08:19:54.390Z,4.73
2022-12-27T08:22:23.572Z,4.74
2022-12-27T08:24:51.430Z,4.74
2022-12-27T08:27:24.236Z,4.75
2022-12-27T08:29:52.290Z,4.75
2022-12-27T08:32:20.361Z,4.76
2022-12-27T08:34:48.267Z,4.77
2022-12-27T08:37:16.197Z,4.78
2022-12-27T08:39:44.175Z,4.79
2022-12-27T08:42:14.724Z,4.81
2022-12-27T08:44:42.530Z,4.83
2022-12-27T08:47:10.444Z,4.85
2022-12-27T08:49:38.401Z,4.88
2022-12-27T08:52:07.019Z,4.89
2022-12-27T08:54:34.961Z,4.90
2022-12-27T08:57:03.534Z,4.87
2022-12-27T08:59:31.713Z,4.89
2022-12-27T09:01:59.738Z,4.90
2022-12-27T09:04:27.625Z,4.93
2022-12-27T09:06:55.625Z,4.95
2022-12-27T09:09:23.486Z,4.97
2022-12-27T09:11:51.361Z,5.00
2022-12-27T09:14:19.280Z,5.02
2022-12-27T09:16:47.407Z,5.04
2022-12-27T09:19:15.570Z,5.07
2022-12-27T09:21:44.174Z,5.11
2022-12-27T09:24:14.359Z,5.16
2022-12-27T09:26:42.766Z,5.23
2022-12-27T09:29:10.831Z,5.30
2022-12-27T09:31:38.802Z,5.38
2022-12-27T09:34:06.773Z,5.44
2022-12-27T09:36:37.824Z,5.48
2022-12-27T09:39:05.917Z,5.52
2022-12-27T09:44:59.991Z,5.60
2022-12-27T09:47:46.569Z,5.66
2022-12-27T09:50:19.071Z,5.76
2022-12-27T09:52:59.432Z,5.84
2022-12-27T09:55:34.255Z,5.94
2022-12-27T09:58:19.270Z,6.07
2022-12-27T10:00:49.756Z,6.24
2022-12-27T10:03:20.184Z,6.42
2022-12-27T10:05:56.250Z,6.77
2022-12-27T10:08:28.720Z,7.51
2022-12-27T10:11:30.184Z,7.91
2022-12-27T10:14:01.900Z,7.98
2022-12-27T10:16:48.951Z,7.94
2022-12-27T10:19:29.198Z,7.99
2022-12-27T10:22:10.485Z,8.06
2022-12-27T10:24:38.461Z,8.11
2022-12-27T10:27:20.151Z,8.06
2022-12-27T10:29:49.032Z,8.10
2022-12-27T10:32:17.120Z,8.42
2022-12-27T10:34:45.286Z,8.61
2022-12-27T10:37:16.636Z,8.70
2022-12-27T10:39:44.598Z,8.77
2022-12-27T10:42:32.329Z,8.86
2022-12-27T10:45:19.256Z,8.97
2022-12-27T10:47:47.216Z,9.14
2022-12-27T10:50:16.110Z,9.89
2022-12-27T10:52:44.096Z,11.04
2022-12-27T10:55:31.340Z,11.77
2022-12-27T10:57:59.474Z,12.12
2022-12-27T11:00:28.057Z,12.78
2022-12-27T11:02:57.493Z,13.55
2022-12-27T11:05:25.931Z,14.48
2022-12-27T11:07:54.158Z,15.58
2022-12-27T11:10:26.287Z,16.56
2022-12-27T11:12:58.197Z,17.36
2022-12-27T11:15:27.953Z,17.67
2022-12-27T11:17:57.560Z,17.48
2022-12-27T11:20:25.536Z,17.04
2022-12-27T11:22:55.782Z,17.06
2022-12-27T11:25:25.627Z,16.93
2022-12-27T11:27:56.512Z,15.92
2022-12-27T11:30:30.826Z,15.43
2022-12-27T11:33:04.119Z,15.15
2022-12-27T11:35:34.755Z,15.99
2022-12-27T11:38:03.028Z,17.19
2022-12-27T11:40:34.822Z,18.29
2022-12-27T11:43:15.438Z,19.26
2022-12-27T11:45:46.926Z,20.29
2022-12-27T11:48:14.991Z,21.08
2022-12-27T11:51:21.565Z,21.86
2022-12-27T11:54:08.372Z,22.50
2022-12-27T11:56:44.425Z,22.44
2022-12-27T11:59:18.475Z,21.94
2022-12-27T12:02:06.575Z,21.02
2022-12-27T12:04:49.907Z,19.80
2022-12-27T12:07:31.719Z,18.60
2022-12-27T12:10:08.781Z,17.43
2022-12-27T12:12:36.644Z,16.35
2022-12-27T12:15:19.917Z,15.24
2022-12-27T12:18:06.691Z,14.67
2022-12-27T12:20:50.750Z,14.00
2022-12-27T12:23:21.974Z,13.40
2022-12-27T12:25:57.553Z,13.00
2022-12-27T12:29:00.309Z,13.20
2022-12-27T12:31:41.319Z,13.37
2022-12-27T12:34:18.369Z,13.05
2022-12-27T12:36:52.125Z,12.57
2022-12-27T12:39:20.449Z,12.97
2022-12-27T12:41:48.396Z,13.73
2022-12-27T12:44:41.046Z,14.49
2022-12-27T12:47:38.946Z,15.58
2022-12-27T12:50:13.060Z,16.94
2022-12-27T12:52:48.202Z,17.87
2022-12-27T12:55:38.174Z,18.76
2022-12-27T12:58:21.817Z,19.82
2022-12-27T13:01:22.273Z,20.74
2022-12-27T13:03:56.268Z,21.43
2022-12-27T13:06:42.276Z,21.96
2022-12-27T13:09:45.688Z,22.38
2022-12-27T13:12:16.592Z,22.80
2022-12-27T13:15:08.923Z,23.02
2022-12-27T13:17:50.116Z,22.70
2022-12-27T13:20:38.452Z,22.63
2022-12-27T13:23:06.432Z,22.39
2022-12-27T13:25:57.446Z,21.98
2022-12-27T13:28:54.903Z,21.51
2022-12-27T13:31:37.860Z,21.22
2022-12-27T13:34:25.233Z,20.55
2022-12-27T13:37:08.478Z,19.45
2022-12-27T13:39:36.464Z,18.29
2022-12-27T13:42:22.946Z,17.47
2022-12-27T13:44:53.566Z,16.76
2022-12-27T13:47:21.441Z,15.90
2022-12-27T13:49:49.302Z,15.32
2022-12-27T13:52:29.873Z,14.58
2022-12-27T13:55:06.571Z,13.99
2022-12-27T13:57:53.459Z,13.38
2022-12-27T14:00:22.556Z,12.99
2022-12-27T14:03:05.815Z,12.51
2022-12-27T14:06:03.551Z,12.20
2022-12-27T14:08:51.686Z,11.86
2022-12-27T14:11:38.224Z,11.69
2022-12-27T14:14:07.188Z,11.44
2022-12-27T14:16:37.930Z,11.19
2022-12-27T14:19:19.211Z,11.03
2022-12-27T14:22:05.581Z,10.82
2022-12-27T14:24:33.478Z,10.60
2022-12-27T14:27:07.686Z,10.45
2022-12-27T14:29:54.397Z,10.25
2022-12-27T14:32:25.553Z,10.09
2022-12-27T14:35:25.835Z,9.84
2022-12-27T14:38:02.580Z,9.67
2022-12-27T14:40:34.815Z,9.52
2022-12-27T14:43:09.131Z,9.41
2022-12-27T14:45:40.177Z,9.34
2022-12-27T14:48:26.877Z,9.19
2022-12-27T14:50:57.826Z,9.09
2022-12-27T14:53:52.207Z,8.96
2022-12-27T14:56:29.532Z,8.90
2022-12-27T14:58:57.471Z,8.79
2022-12-27T15:01:44.476Z,8.68
2022-12-27T15:04:18.289Z,8.50
2022-12-27T15:07:02.967Z,8.33
2022-12-27T15:09:40.648Z,8.19
2022-12-27T15:12:14.056Z,8.09
2022-12-27T15:14:57.369Z,8.09
2022-12-27T15:17:40.810Z,8.07
2022-12-27T15:20:20.963Z,8.05
2022-12-27T15:23:06.133Z,7.99
2022-12-27T15:25:45.977Z,7.94
2022-12-27T15:28:28.285Z,7.94
2022-12-27T15:31:06.731Z,7.91
2022-12-27T15:33:44.812Z,7.87
2022-12-27T15:36:14.557Z,7.82
2022-12-27T15:38:54.003Z,7.76
2022-12-27T15:41:24.786Z,7.67
2022-12-27T15:44:11.414Z,7.58
2022-12-27T15:46:58.089Z,7.49
2022-12-27T15:49:33.893Z,7.42
2022-12-27T15:52:09.926Z,7.36
2022-12-27T15:54:56.729Z,7.33
2022-12-27T15:57:37.095Z,7.30
2022-12-27T16:00:14.686Z,7.31
2022-12-27T16:02:48.792Z,7.34
2022-12-27T16:05:20.150Z,7.36
2022-12-27T16:08:00.428Z,7.36
2022-12-27T16:10:35.440Z,7.35
2022-12-27T16:13:09.459Z,7.34
2022-12-27T16:15:39.891Z,7.34
2022-12-27T16:18:28.145Z,7.33
2022-12-27T16:21:06.738Z,7.28
2022-12-27T16:23:36.696Z,7.25
2022-12-27T16:26:06.889Z,7.25
2022-12-27T16:28:36.799Z,7.22
2022-12-27T16:31:11.844Z,7.19
2022-12-27T16:33:41.145Z,7.17
2022-12-27T16:36:12.273Z,7.11
2022-12-27T16:38:48.862Z,7.08
2022-12-27T16:41:16.921Z,7.06
2022-12-27T16:44:04.993Z,6.99
2022-12-27T16:46:33.170Z,6.92
2022-12-27T16:49:13.640Z,6.85
2022-12-27T16:51:53.956Z,6.87
2022-12-27T16:54:40.558Z,6.84
2022-12-27T16:57:23.792Z,6.83
2022-12-27T16:59:55.899Z,6.80
2022-12-27T17:02:31.583Z,6.79
2022-12-27T17:05:01.094Z,6.76
2022-12-27T17:07:44.881Z,6.79
2022-12-27T17:10:28.008Z,6.81
2022-12-27T17:12:58.927Z,6.82
2022-12-27T17:15:27.455Z,6.82
2022-12-27T17:17:58.340Z,6.83
2022-12-27T17:20:26.505Z,6.82
2022-12-27T17:22:57.971Z,6.80
2022-12-27T17:25:33.327Z,6.77
2022-12-27T17:28:09.672Z,6.73
2022-12-27T17:30:55.768Z,6.72
2022-12-27T17:33:31.926Z,6.65
2022-12-27T17:36:14.843Z,6.62
2022-12-27T17:38:52.134Z,6.56
2022-12-27T17:41:46.215Z,6.52
2022-12-27T17:44:40.533Z,6.44
2022-12-27T17:47:17.478Z,6.38
2022-12-27T17:49:45.454Z,6.32
2022-12-27T17:52:36.474Z,6.27
2022-12-27T17:55:34.444Z,6.21
2022-12-27T17:58:04.037Z,6.14
2022-12-27T18:00:33.859Z,6.06
2022-12-27T18:03:06.679Z,5.95
2022-12-27T18:05:36.961Z,5.87
2022-12-27T18:08:06.361Z,5.75
2022-12-27T18:10:36.691Z,5.67
2022-12-27T18:13:06.091Z,5.62
2022-12-27T18:15:36.138Z,5.55
2022-12-27T18:18:06.020Z,5.50
2022-12-27T18:20:35.228Z,5.44
2022-12-27T18:23:03.170Z,5.38
2022-12-27T18:25:40.397Z,5.33
2022-12-27T18:28:33.712Z,5.30
2022-12-27T18:31:05.006Z,5.26
2022-12-27T18:33:42.077Z,5.23
2022-12-27T18:36:14.035Z,5.20
2022-12-27T18:38:43.611Z,5.18
2022-12-27T18:41:19.825Z,5.16
2022-12-27T18:43:49.528Z,5.12
2022-12-27T18:46:22.503Z,5.08
2022-12-27T18:48:50.602Z,5.06
2022-12-27T18:51:18.952Z,5.03
2022-12-27T18:53:46.928Z,5.00
2022-12-27T18:56:14.902Z,4.97
2022-12-27T18:59:05.872Z,4.94
2022-12-27T19:01:39.924Z,4.90
2022-12-27T19:04:14.021Z,4.87
2022-12-27T19:06:44.451Z,4.83
2022-12-27T19:09:16.858Z,4.79
2022-12-27T19:12:14.280Z,4.75
2022-12-27T19:14:44.109Z,4.69
2022-12-27T19:17:19.852Z,4.63
2022-12-27T19:19:49.461Z,4.57
2022-12-27T19:22:46.821Z,4.51
2022-12-27T19:25:23.907Z,4.43
2022-12-27T19:27:59.546Z,4.33
2022-12-27T19:30:30.705Z,4.24
2022-12-27T19:32:59.070Z,4.18
2022-12-27T19:35:27.149Z,4.12
2022-12-27T19:37:55.209Z,4.05
2022-12-27T19:40:23.334Z,4.01
2022-12-27T19:42:51.466Z,3.96
2022-12-27T19:45:20.852Z,3.92
2022-12-27T19:47:49.755Z,3.91
2022-12-27T19:50:17.618Z,3.90
2022-12-27T19:52:47.497Z,3.88
2022-12-27T19:55:18.070Z,3.84
2022-12-27T19:57:46.039Z,3.83
2022-12-27T20:00:15.512Z,3.81
2022-12-27T20:02:43.670Z,3.78
2022-12-27T20:05:12.300Z,3.75
2022-12-27T20:07:40.588Z,3.72
2022-12-27T20:10:12.854Z,3.69
2022-12-27T20:12:40.796Z,3.65
2022-12-27T20:15:09.089Z,3.63
2022-12-27T20:17:42.750Z,3.61
2022-12-27T20:20:12.713Z,3.59
2022-12-27T20:22:40.580Z,3.56
2022-12-27T20:25:08.773Z,3.55
2022-12-27T20:27:36.730Z,3.53
2022-12-27T20:30:05.412Z,3.50
2022-12-27T20:32:33.275Z,3.48
2022-12-27T20:35:01.450Z,3.46
2022-12-27T20:37:29.366Z,3.42
2022-12-27T20:39:57.404Z,3.39
2022-12-27T20:42:25.355Z,3.36
2022-12-27T20:44:53.632Z,3.33
2022-12-27T20:47:21.491Z,3.30
2022-12-27T20:49:49.474Z,3.24
2022-12-27T20:52:17.545Z,3.18
2022-12-27T20:54:45.511Z,3.13
2022-12-27T20:57:13.380Z,3.09
2022-12-27T20:59:41.349Z,3.03
2022-12-27T21:02:11.534Z,3.00
2022-12-27T21:04:39.847Z,2.98
2022-12-27T21:07:08.643Z,2.97
2022-12-27T21:09:37.838Z,2.95
2022-12-27T21:12:06.018Z,2.92
2022-12-27T21:14:34.186Z,2.88
2022-12-27T21:17:02.241Z,2.85
2022-12-27T21:19:30.530Z,2.83
2022-12-27T21:21:58.710Z,2.81
2022-12-27T21:24:26.573Z,2.79
2022-12-27T21:26:56.517Z,2.79
2022-12-27T21:29:25.056Z,2.78
2022-12-27T21:31:53.563Z,2.76
2022-12-27T21:34:21.942Z,2.74
2022-12-27T21:36:52.885Z,2.73
2022-12-27T21:39:21.687Z,2.72
2022-12-27T21:41:49.607Z,2.66
2022-12-27T21:44:17.805Z,2.64
2022-12-27T21:46:45.723Z,2.61
2022-12-27T21:49:17.136Z,2.59
2022-12-27T21:51:45.296Z,2.55
2022-12-27T21:54:14.117Z,2.52
2022-12-27T21:56:42.160Z,2.50
2022-12-27T21:59:13.100Z,2.49
2022-12-27T22:01:50.656Z,2.47
2022-12-27T22:04:21.333Z,2.45
2022-12-27T22:06:49.435Z,2.43
2022-12-27T22:09:19.295Z,2.42
2022-12-27T22:11:48.125Z,2.40
2022-12-27T22:14:16.597Z,2.38
2022-12-27T22:16:44.673Z,2.34
2022-12-27T22:19:13.242Z,2.33
2022-12-27T22:21:42.162Z,2.30
2022-12-27T22:24:12.848Z,2.29
2022-12-27T22:26:42.065Z,2.28
2022-12-27T22:29:10.036Z,2.25
2022-12-27T22:31:39.539Z,2.24
2022-12-27T22:34:07.504Z,2.22
2022-12-27T22:36:35.552Z,2.21
2022-12-27T22:39:03.865Z,2.19
2022-12-27T22:41:33.881Z,2.16
2022-12-27T22:44:03.497Z,2.14
2022-12-27T22:46:58.399Z,2.11
2022-12-27T22:49:19.716Z,2.08
2022-12-27T22:51:47.672Z,2.06
2022-12-27T22:54:15.549Z,2.03
2022-12-27T22:56:43.449Z,1.99
2022-12-27T22:59:15.009Z,1.97
2022-12-27T23:01:43.558Z,1.94
2022-12-27T23:04:13.348Z,1.92
2022-12-27T23:06:41.660Z,1.90
2022-12-27T23:09:09.711Z,1.88
2022-12-27T23:11:41.010Z,1.84
2022-12-27T23:14:13.812Z,1.81
2022-12-27T23:16:46.115Z,1.75
2022-12-27T23:19:15.301Z,1.72
2022-12-27T23:21:43.267Z,1.68
2022-12-27T23:24:11.349Z,1.65
2022-12-27T23:26:39.918Z,1.61
2022-12-27T23:29:08.305Z,1.58
2022-12-27T23:31:36.319Z,1.55
2022-12-27T23:34:27.655Z,1.51
2022-12-27T23:36:59.873Z,1.50
2022-12-27T23:39:28.361Z,1.46
2022-12-27T23:41:56.728Z,1.45
2022-12-27T23:44:32.915Z,1.44
2022-12-27T23:47:02.624Z,1.41
2022-12-27T23:49:31.077Z,1.39
2022-12-27T23:51:58.979Z,1.36
2022-12-27T23:54:26.801Z,1.33
2022-12-27T23:56:54.616Z,1.30
2022-12-27T23:59:22.650Z,1.27
